sensor_id;sensor_type;location;lat;lon;timestamp;pressure;altitude;pressure_sealevel;temperature;humidity
41862;BME280;27537;57.134;-2.136;2023-08-06T00:01:53;100848.38;;;12.74;100.00
41862;BME280;27537;57.134;-2.136;2023-08-06T00:04:20;100848.19;;;12.79;100.00
41862;BME280;27537;57.134;-2.136;2023-08-06T00:06:47;100843.19;;;12.72;100.00
41862;BME280;27537;57.134;-2.136;2023-08-06T00:09:14;100848.66;;;12.68;100.00
41862;BME280;27537;57.134;-2.136;2023-08-06T00:11:40;100844.00;;;12.54;100.00
41862;BME280;27537;57.134;-2.136;2023-08-06T00:14:07;100842.69;;;12.64;100.00
41862;BME280;27537;57.134;-2.136;2023-08-06T00:16:34;100843.66;;;12.62;100.00
41862;BME280;27537;57.134;-2.136;2023-08-06T00:19:01;100844.97;;;12.51;100.00
41862;BME280;27537;57.134;-2.136;2023-08-06T00:21:27;100844.66;;;12.59;100.00
41862;BME280;27537;57.134;-2.136;2023-08-06T00:23:54;100846.22;;;12.63;100.00
41862;BME280;27537;57.134;-2.136;2023-08-06T00:26:20;100843.94;;;12.56;100.00
41862;BME280;27537;57.134;-2.136;2023-08-06T00:28:47;100838.69;;;12.56;100.00
41862;BME280;27537;57.134;-2.136;2023-08-06T00:31:14;100843.28;;;12.50;100.00
41862;BME280;27537;57.134;-2.136;2023-08-06T00:33:40;100849.25;;;12.54;100.00
41862;BME280;27537;57.134;-2.136;2023-08-06T00:36:07;100846.09;;;12.46;100.00
41862;BME280;27537;57.134;-2.136;2023-08-06T00:38:34;100849.25;;;12.54;100.00
41862;BME280;27537;57.134;-2.136;2023-08-06T00:41:00;100853.81;;;12.50;100.00
41862;BME280;27537;57.134;-2.136;2023-08-06T00:43:27;100855.56;;;12.50;100.00
41862;BME280;27537;57.134;-2.136;2023-08-06T00:45:54;100847.97;;;12.44;100.00
41862;BME280;27537;57.134;-2.136;2023-08-06T00:48:21;100858.06;;;12.53;100.00
41862;BME280;27537;57.134;-2.136;2023-08-06T00:50:48;100855.72;;;12.47;100.00
41862;BME280;27537;57.134;-2.136;2023-08-06T00:53:15;100865.09;;;12.52;100.00
41862;BME280;27537;57.134;-2.136;2023-08-06T00:55:44;100864.03;;;12.57;100.00
41862;BME280;27537;57.134;-2.136;2023-08-06T00:58:12;100864.09;;;12.55;100.00
41862;BME280;27537;57.134;-2.136;2023-08-06T01:00:39;100860.63;;;12.54;100.00
41862;BME280;27537;57.134;-2.136;2023-08-06T01:03:06;100867.97;;;12.46;100.00
41862;BME280;27537;57.134;-2.136;2023-08-06T01:05:33;100867.84;;;12.49;100.00
41862;BME280;27537;57.134;-2.136;2023-08-06T01:11:21;100877.84;;;12.41;100.00
41862;BME280;27537;57.134;-2.136;2023-08-06T01:13:55;100877.38;;;12.31;100.00
41862;BME280;27537;57.134;-2.136;2023-08-06T01:16:24;100872.06;;;12.33;100.00
41862;BME280;27537;57.134;-2.136;2023-08-06T01:18:50;100874.88;;;12.28;100.00
41862;BME280;27537;57.134;-2.136;2023-08-06T01:21:18;100881.50;;;12.17;100.00
41862;BME280;27537;57.134;-2.136;2023-08-06T01:23:46;100881.34;;;12.20;100.00
41862;BME280;27537;57.134;-2.136;2023-08-06T01:29:10;100888.00;;;12.08;100.00
41862;BME280;27537;57.134;-2.136;2023-08-06T01:31:41;100884.97;;;12.17;100.00
41862;BME280;27537;57.134;-2.136;2023-08-06T01:34:15;100884.06;;;12.39;100.00
41862;BME280;27537;57.134;-2.136;2023-08-06T01:36:44;100900.59;;;12.61;100.00
41862;BME280;27537;57.134;-2.136;2023-08-06T01:39:12;100897.59;;;12.29;100.00
41862;BME280;27537;57.134;-2.136;2023-08-06T01:41:38;100896.25;;;12.19;100.00
41862;BME280;27537;57.134;-2.136;2023-08-06T01:44:05;100900.78;;;12.15;100.00
41862;BME280;27537;57.134;-2.136;2023-08-06T01:46:32;100891.19;;;12.14;100.00
41862;BME280;27537;57.134;-2.136;2023-08-06T01:48:59;100899.94;;;12.15;100.00
41862;BME280;27537;57.134;-2.136;2023-08-06T01:51:25;100893.97;;;12.11;100.00
41862;BME280;27537;57.134;-2.136;2023-08-06T01:53:52;100905.31;;;12.12;100.00
41862;BME280;27537;57.134;-2.136;2023-08-06T01:56:19;100887.75;;;12.34;100.00
41862;BME280;27537;57.134;-2.136;2023-08-06T01:58:45;100899.94;;;12.15;100.00
41862;BME280;27537;57.134;-2.136;2023-08-06T02:01:12;100893.00;;;12.34;100.00
41862;BME280;27537;57.134;-2.136;2023-08-06T02:03:39;100886.88;;;12.13;100.00
41862;BME280;27537;57.134;-2.136;2023-08-06T02:06:05;100890.63;;;12.08;100.00
41862;BME280;27537;57.134;-2.136;2023-08-06T02:08:32;100900.13;;;12.10;100.00
41862;BME280;27537;57.134;-2.136;2023-08-06T02:10:59;100903.78;;;12.06;100.00
41862;BME280;27537;57.134;-2.136;2023-08-06T02:13:26;100907.88;;;12.13;100.00
41862;BME280;27537;57.134;-2.136;2023-08-06T02:15:52;100908.94;;;12.09;100.00
41862;BME280;27537;57.134;-2.136;2023-08-06T02:18:19;100907.03;;;12.13;100.00
41862;BME280;27537;57.134;-2.136;2023-08-06T02:21:06;100898.88;;;12.19;100.00
41862;BME280;27537;57.134;-2.136;2023-08-06T02:23:32;100909.31;;;12.21;100.00
41862;BME280;27537;57.134;-2.136;2023-08-06T02:26:03;100901.13;;;12.28;100.00
41862;BME280;27537;57.134;-2.136;2023-08-06T02:28:30;100893.97;;;12.32;100.00
41862;BME280;27537;57.134;-2.136;2023-08-06T02:30:57;100901.59;;;12.38;100.00
41862;BME280;27537;57.134;-2.136;2023-08-06T02:33:24;100896.00;;;12.46;100.00
41862;BME280;27537;57.134;-2.136;2023-08-06T02:35:51;100894.38;;;12.43;100.00
41862;BME280;27537;57.134;-2.136;2023-08-06T02:38:17;100896.00;;;12.46;100.00
41862;BME280;27537;57.134;-2.136;2023-08-06T02:40:47;100883.66;;;12.48;100.00
41862;BME280;27537;57.134;-2.136;2023-08-06T02:43:13;100893.31;;;12.47;100.00
41862;BME280;27537;57.134;-2.136;2023-08-06T02:45:41;100904.00;;;12.63;100.00
41862;BME280;27537;57.134;-2.136;2023-08-06T02:48:07;100906.66;;;12.63;100.00
41862;BME280;27537;57.134;-2.136;2023-08-06T02:50:41;100898.19;;;12.36;100.00
41862;BME280;27537;57.134;-2.136;2023-08-06T02:53:08;100886.66;;;12.18;100.00
41862;BME280;27537;57.134;-2.136;2023-08-06T02:55:35;100871.25;;;12.10;100.00
41862;BME280;27537;57.134;-2.136;2023-08-06T02:58:02;100877.81;;;12.21;100.00
41862;BME280;27537;57.134;-2.136;2023-08-06T03:00:29;100886.41;;;12.24;100.00
41862;BME280;27537;57.134;-2.136;2023-08-06T03:02:55;100891.22;;;12.35;100.00
41862;BME280;27537;57.134;-2.136;2023-08-06T03:05:22;100887.09;;;12.29;100.00
41862;BME280;27537;57.134;-2.136;2023-08-06T03:07:49;100888.66;;;12.33;100.00
41862;BME280;27537;57.134;-2.136;2023-08-06T03:10:15;100889.31;;;12.39;100.00
41862;BME280;27537;57.134;-2.136;2023-08-06T03:12:42;100889.25;;;12.40;100.00
41862;BME280;27537;57.134;-2.136;2023-08-06T03:15:09;100890.88;;;12.43;100.00
41862;BME280;27537;57.134;-2.136;2023-08-06T03:17:36;100892.78;;;12.39;100.00
41862;BME280;27537;57.134;-2.136;2023-08-06T03:20:03;100892.66;;;12.63;100.00
41862;BME280;27537;57.134;-2.136;2023-08-06T03:22:30;100903.28;;;12.80;100.00
41862;BME280;27537;57.134;-2.136;2023-08-06T03:24:56;100890.22;;;12.38;100.00
41862;BME280;27537;57.134;-2.136;2023-08-06T03:27:23;100886.41;;;12.24;100.00
41862;BME280;27537;57.134;-2.136;2023-08-06T03:29:50;100882.91;;;12.25;100.00
41862;BME280;27537;57.134;-2.136;2023-08-06T03:32:17;100892.94;;;12.36;100.00
41862;BME280;27537;57.134;-2.136;2023-08-06T03:34:43;100889.72;;;12.29;100.00
41862;BME280;27537;57.134;-2.136;2023-08-06T03:37:10;100887.47;;;12.41;100.00
41862;BME280;27537;57.134;-2.136;2023-08-06T03:39:37;100889.25;;;12.40;100.00
41862;BME280;27537;57.134;-2.136;2023-08-06T03:42:04;100882.63;;;12.31;100.00
41862;BME280;27537;57.134;-2.136;2023-08-06T03:44:30;100899.56;;;12.45;100.00
41862;BME280;27537;57.134;-2.136;2023-08-06T03:46:57;100897.38;;;12.34;100.00
41862;BME280;27537;57.134;-2.136;2023-08-06T03:49:24;100896.22;;;12.41;100.00
41862;BME280;27537;57.134;-2.136;2023-08-06T03:51:50;100890.97;;;12.41;100.00
41862;BME280;27537;57.134;-2.136;2023-08-06T03:54:17;100896.59;;;12.32;100.00
41862;BME280;27537;57.134;-2.136;2023-08-06T03:56:44;100904.16;;;12.40;100.00
41862;BME280;27537;57.134;-2.136;2023-08-06T03:59:11;100898.97;;;12.38;100.00
41862;BME280;27537;57.134;-2.136;2023-08-06T04:01:37;100897.47;;;12.32;100.00
41862;BME280;27537;57.134;-2.136;2023-08-06T04:04:04;100904.00;;;12.43;100.00
41862;BME280;27537;57.134;-2.136;2023-08-06T04:06:31;100904.94;;;12.42;100.00
41862;BME280;27537;57.134;-2.136;2023-08-06T04:08:57;100904.34;;;12.35;100.00
41862;BME280;27537;57.134;-2.136;2023-08-06T04:11:24;100895.03;;;12.28;100.00
41862;BME280;27537;57.134;-2.136;2023-08-06T04:13:51;100905.06;;;12.39;100.00
41862;BME280;27537;57.134;-2.136;2023-08-06T04:16:17;100914.84;;;12.35;100.00
41862;BME280;27537;57.134;-2.136;2023-08-06T04:18:44;100906.25;;;12.31;100.00
41862;BME280;27537;57.134;-2.136;2023-08-06T04:21:12;100913.28;;;12.31;100.00
41862;BME280;27537;57.134;-2.136;2023-08-06T04:23:39;100914.19;;;12.30;100.00
41862;BME280;27537;57.134;-2.136;2023-08-06T04:26:06;100921.28;;;12.28;100.00
41862;BME280;27537;57.134;-2.136;2023-08-06T04:28:32;100921.28;;;12.28;100.00
41862;BME280;27537;57.134;-2.136;2023-08-06T04:30:59;100903.06;;;12.23;100.00
41862;BME280;27537;57.134;-2.136;2023-08-06T04:33:26;100915.06;;;12.08;100.00
41862;BME280;27537;57.134;-2.136;2023-08-06T04:35:56;100916.06;;;12.06;100.00
41862;BME280;27537;57.134;-2.136;2023-08-06T04:38:26;100904.75;;;12.04;100.00
41862;BME280;27537;57.134;-2.136;2023-08-06T04:40:53;100916.72;;;12.11;100.00
41862;BME280;27537;57.134;-2.136;2023-08-06T04:43:20;100905.69;;;12.03;100.00
41862;BME280;27537;57.134;-2.136;2023-08-06T04:45:51;100908.75;;;11.92;100.00
41862;BME280;27537;57.134;-2.136;2023-08-06T04:48:18;100912.06;;;11.97;100.00
41862;BME280;27537;57.134;-2.136;2023-08-06T04:50:49;100918.19;;;11.96;100.00
41862;BME280;27537;57.134;-2.136;2023-08-06T04:53:16;100912.06;;;11.97;100.00
41862;BME280;27537;57.134;-2.136;2023-08-06T04:55:43;100922.66;;;11.94;100.00
41862;BME280;27537;57.134;-2.136;2023-08-06T04:58:10;100919.34;;;11.89;100.00
41862;BME280;27537;57.134;-2.136;2023-08-06T05:00:37;100915.53;;;11.98;100.00
41862;BME280;27537;57.134;-2.136;2023-08-06T05:03:05;100922.78;;;11.91;100.00
41862;BME280;27537;57.134;-2.136;2023-08-06T05:05:32;100926.25;;;11.91;100.00
41862;BME280;27537;57.134;-2.136;2023-08-06T05:07:59;100930.53;;;11.94;100.00
41862;BME280;27537;57.134;-2.136;2023-08-06T05:10:26;100926.88;;;11.98;100.00
41862;BME280;27537;57.134;-2.136;2023-08-06T05:12:53;100929.81;;;11.90;100.00
41862;BME280;27537;57.134;-2.136;2023-08-06T05:15:20;100932.84;;;12.02;100.00
41862;BME280;27537;57.134;-2.136;2023-08-06T05:17:47;100913.69;;;12.00;100.00
41862;BME280;27537;57.134;-2.136;2023-08-06T05:20:13;100929.03;;;12.09;100.00
41862;BME280;27537;57.134;-2.136;2023-08-06T05:22:40;100928.94;;;12.12;100.00
41862;BME280;27537;57.134;-2.136;2023-08-06T05:25:07;100929.47;;;12.20;100.00
41862;BME280;27537;57.134;-2.136;2023-08-06T05:27:34;100926.97;;;12.17;100.00
41862;BME280;27537;57.134;-2.136;2023-08-06T05:30:00;100929.28;;;12.25;100.00
41862;BME280;27537;57.134;-2.136;2023-08-06T05:32:27;100925.06;;;12.21;100.00
41862;BME280;27537;57.134;-2.136;2023-08-06T05:34:54;100933.63;;;12.26;100.00
41862;BME280;27537;57.134;-2.136;2023-08-06T05:37:20;100930.59;;;12.35;100.00
41862;BME280;27537;57.134;-2.136;2023-08-06T05:39:47;100932.00;;;12.44;100.00
41862;BME280;27537;57.134;-2.136;2023-08-06T05:42:14;100938.63;;;12.52;100.00
41862;BME280;27537;57.134;-2.136;2023-08-06T05:44:40;100940.25;;;12.55;100.00
41862;BME280;27537;57.134;-2.136;2023-08-06T05:47:07;100941.13;;;12.56;100.00
41862;BME280;27537;57.134;-2.136;2023-08-06T05:49:34;100933.19;;;12.57;100.00
41862;BME280;27537;57.134;-2.136;2023-08-06T05:52:00;100949.34;;;12.68;100.00
41862;BME280;27537;57.134;-2.136;2023-08-06T05:54:27;100948.34;;;12.71;100.00
41862;BME280;27537;57.134;-2.136;2023-08-06T05:56:53;100939.47;;;12.73;100.00
41862;BME280;27537;57.134;-2.136;2023-08-06T05:59:20;100952.16;;;12.84;100.00
41862;BME280;27537;57.134;-2.136;2023-08-06T06:01:47;100955.50;;;12.88;100.00
41862;BME280;27537;57.134;-2.136;2023-08-06T06:04:13;100957.53;;;13.02;100.00
41862;BME280;27537;57.134;-2.136;2023-08-06T06:06:40;100959.81;;;12.89;100.00
41862;BME280;27537;57.134;-2.136;2023-08-06T06:09:08;100966.66;;;12.93;100.00
41862;BME280;27537;57.134;-2.136;2023-08-06T06:11:34;100971.31;;;13.07;100.00
41862;BME280;27537;57.134;-2.136;2023-08-06T06:14:01;100969.53;;;13.07;100.00
41862;BME280;27537;57.134;-2.136;2023-08-06T06:16:28;100965.00;;;13.11;100.00
41862;BME280;27537;57.134;-2.136;2023-08-06T06:18:54;100982.69;;;13.07;100.00
41862;BME280;27537;57.134;-2.136;2023-08-06T06:21:23;100969.34;;;13.12;100.00
41862;BME280;27537;57.134;-2.136;2023-08-06T06:23:50;100969.13;;;13.17;100.00
41862;BME280;27537;57.134;-2.136;2023-08-06T06:26:20;100962.88;;;13.19;100.00
41862;BME280;27537;57.134;-2.136;2023-08-06T06:28:47;100964.72;;;13.17;100.00
41862;BME280;27537;57.134;-2.136;2023-08-06T06:31:13;100960.44;;;13.15;100.00
41862;BME280;27537;57.134;-2.136;2023-08-06T06:33:40;100968.47;;;13.32;100.00
41862;BME280;27537;57.134;-2.136;2023-08-06T06:36:07;100976.41;;;13.30;100.00
41862;BME280;27537;57.134;-2.136;2023-08-06T06:38:34;100977.31;;;13.29;100.00
41862;BME280;27537;57.134;-2.136;2023-08-06T06:41:01;100978.25;;;13.28;100.00
41862;BME280;27537;57.134;-2.136;2023-08-06T06:43:29;100975.22;;;13.38;100.00
41862;BME280;27537;57.134;-2.136;2023-08-06T06:45:57;100978.31;;;13.47;100.00
41862;BME280;27537;57.134;-2.136;2023-08-06T06:48:32;100982.69;;;13.66;100.00
41862;BME280;27537;57.134;-2.136;2023-08-06T06:50:59;100978.47;;;13.81;100.00
41862;BME280;27537;57.134;-2.136;2023-08-06T06:53:26;100985.19;;;13.69;100.00
41862;BME280;27537;57.134;-2.136;2023-08-06T06:55:56;100990.09;;;13.96;100.00
41862;BME280;27537;57.134;-2.136;2023-08-06T06:58:27;100990.41;;;14.07;100.00
41862;BME280;27537;57.134;-2.136;2023-08-06T07:00:54;100977.28;;;14.24;100.00
41862;BME280;27537;57.134;-2.136;2023-08-06T07:03:20;100996.13;;;14.52;100.00
41862;BME280;27537;57.134;-2.136;2023-08-06T07:05:47;100985.88;;;14.82;100.00
41862;BME280;27537;57.134;-2.136;2023-08-06T07:08:14;100994.84;;;14.95;100.00
41862;BME280;27537;57.134;-2.136;2023-08-06T07:10:41;100999.75;;;15.19;100.00
41862;BME280;27537;57.134;-2.136;2023-08-06T07:13:09;100998.88;;;15.36;100.00
41862;BME280;27537;57.134;-2.136;2023-08-06T07:15:36;100998.75;;;15.22;100.00
41862;BME280;27537;57.134;-2.136;2023-08-06T07:18:03;101004.13;;;15.36;100.00
41862;BME280;27537;57.134;-2.136;2023-08-06T07:20:29;101008.88;;;15.29;100.00
41862;BME280;27537;57.134;-2.136;2023-08-06T07:22:58;101020.25;;;15.63;100.00
41862;BME280;27537;57.134;-2.136;2023-08-06T07:25:25;101015.56;;;16.02;100.00
41862;BME280;27537;57.134;-2.136;2023-08-06T07:27:52;101013.56;;;16.67;100.00
41862;BME280;27537;57.134;-2.136;2023-08-06T07:30:19;101014.03;;;17.04;100.00
41862;BME280;27537;57.134;-2.136;2023-08-06T07:32:45;101018.13;;;17.10;100.00
41862;BME280;27537;57.134;-2.136;2023-08-06T07:35:12;101027.94;;;17.22;100.00
41862;BME280;27537;57.134;-2.136;2023-08-06T07:37:41;101013.78;;;17.23;100.00
41862;BME280;27537;57.134;-2.136;2023-08-06T07:40:08;101012.34;;;17.61;100.00
41862;BME280;27537;57.134;-2.136;2023-08-06T07:42:35;101034.47;;;17.74;100.00
41862;BME280;27537;57.134;-2.136;2023-08-06T07:45:02;101032.00;;;18.00;100.00
41862;BME280;27537;57.134;-2.136;2023-08-06T07:47:29;101032.69;;;18.16;100.00
41862;BME280;27537;57.134;-2.136;2023-08-06T07:49:55;101023.56;;;17.79;100.00
41862;BME280;27537;57.134;-2.136;2023-08-06T07:52:22;101024.31;;;17.81;100.00
41862;BME280;27537;57.134;-2.136;2023-08-06T07:54:49;101014.97;;;17.75;100.00
41862;BME280;27537;57.134;-2.136;2023-08-06T07:57:15;101027.41;;;18.16;100.00
41862;BME280;27537;57.134;-2.136;2023-08-06T07:59:43;101020.66;;;17.98;100.00
41862;BME280;27537;57.134;-2.136;2023-08-06T08:02:09;101021.94;;;18.05;100.00
41862;BME280;27537;57.134;-2.136;2023-08-06T08:04:36;101020.66;;;18.65;100.00
41862;BME280;27537;57.134;-2.136;2023-08-06T08:07:03;101019.94;;;18.76;100.00
41862;BME280;27537;57.134;-2.136;2023-08-06T08:09:30;101023.19;;;18.94;100.00
41862;BME280;27537;57.134;-2.136;2023-08-06T08:11:56;101016.28;;;19.43;100.00
41862;BME280;27537;57.134;-2.136;2023-08-06T08:14:26;101009.53;;;19.63;100.00
41862;BME280;27537;57.134;-2.136;2023-08-06T08:16:53;101006.75;;;19.02;100.00
41862;BME280;27537;57.134;-2.136;2023-08-06T08:19:20;101002.94;;;18.53;100.00
41862;BME280;27537;57.134;-2.136;2023-08-06T08:21:47;101022.19;;;18.15;100.00
41862;BME280;27537;57.134;-2.136;2023-08-06T08:24:14;101014.59;;;17.81;100.00
41862;BME280;27537;57.134;-2.136;2023-08-06T08:26:41;101021.72;;;17.52;100.00
41862;BME280;27537;57.134;-2.136;2023-08-06T08:29:07;101013.03;;;17.07;100.00
41862;BME280;27537;57.134;-2.136;2023-08-06T08:31:34;101016.19;;;16.83;100.00
41862;BME280;27537;57.134;-2.136;2023-08-06T08:34:05;101008.34;;;16.66;100.00
41862;BME280;27537;57.134;-2.136;2023-08-06T08:36:32;100998.38;;;16.41;100.00
41862;BME280;27537;57.134;-2.136;2023-08-06T08:38:59;101018.00;;;16.37;100.00
41862;BME280;27537;57.134;-2.136;2023-08-06T08:41:29;101012.03;;;16.63;100.00
41862;BME280;27537;57.134;-2.136;2023-08-06T08:43:56;101013.28;;;16.88;100.00
41862;BME280;27537;57.134;-2.136;2023-08-06T08:46:26;101015.09;;;17.45;100.00
41862;BME280;27537;57.134;-2.136;2023-08-06T08:48:54;101009.41;;;17.80;100.00
41862;BME280;27537;57.134;-2.136;2023-08-06T08:51:23;101014.59;;;18.23;100.00
41862;BME280;27537;57.134;-2.136;2023-08-06T08:53:53;101015.66;;;18.60;100.00
41862;BME280;27537;57.134;-2.136;2023-08-06T08:56:23;101024.81;;;18.29;100.00
41862;BME280;27537;57.134;-2.136;2023-08-06T08:58:50;101029.16;;;18.03;100.00
41862;BME280;27537;57.134;-2.136;2023-08-06T09:01:21;101015.94;;;17.60;100.00
41862;BME280;27537;57.134;-2.136;2023-08-06T09:03:48;101012.44;;;16.87;100.00
41862;BME280;27537;57.134;-2.136;2023-08-06T09:06:15;101018.47;;;16.89;100.00
41862;BME280;27537;57.134;-2.136;2023-08-06T09:08:53;101025.94;;;16.67;100.00
41862;BME280;27537;57.134;-2.136;2023-08-06T09:11:21;101033.38;;;16.60;100.00
41862;BME280;27537;57.134;-2.136;2023-08-06T09:13:48;101031.22;;;16.67;100.00
41862;BME280;27537;57.134;-2.136;2023-08-06T09:16:15;101033.75;;;16.84;100.00
41862;BME280;27537;57.134;-2.136;2023-08-06T09:18:42;101032.31;;;16.79;100.00
41862;BME280;27537;57.134;-2.136;2023-08-06T09:21:14;101029.56;;;17.11;100.00
41862;BME280;27537;57.134;-2.136;2023-08-06T09:23:42;101029.00;;;17.05;100.00
41862;BME280;27537;57.134;-2.136;2023-08-06T09:26:11;101022.72;;;16.92;100.00
41862;BME280;27537;57.134;-2.136;2023-08-06T09:28:41;101022.28;;;17.14;100.00
41862;BME280;27537;57.134;-2.136;2023-08-06T09:31:10;101032.59;;;17.19;100.00
41862;BME280;27537;57.134;-2.136;2023-08-06T09:33:37;101015.94;;;17.02;100.00
41862;BME280;27537;57.134;-2.136;2023-08-06T09:36:09;101032.03;;;17.42;100.00
41862;BME280;27537;57.134;-2.136;2023-08-06T09:38:38;101032.63;;;17.48;100.00
41862;BME280;27537;57.134;-2.136;2023-08-06T09:41:07;101039.78;;;17.45;100.00
41862;BME280;27537;57.134;-2.136;2023-08-06T09:43:43;101036.09;;;17.62;100.00
41862;BME280;27537;57.134;-2.136;2023-08-06T09:46:11;101035.91;;;17.65;100.00
41862;BME280;27537;57.134;-2.136;2023-08-06T09:48:40;101031.53;;;17.79;100.00
41862;BME280;27537;57.134;-2.136;2023-08-06T09:51:08;101024.44;;;17.94;100.00
41862;BME280;27537;57.134;-2.136;2023-08-06T09:53:37;101042.91;;;18.23;100.00
41862;BME280;27537;57.134;-2.136;2023-08-06T09:56:06;101042.25;;;18.19;100.00
41862;BME280;27537;57.134;-2.136;2023-08-06T09:58:36;101037.38;;;17.84;100.00
41862;BME280;27537;57.134;-2.136;2023-08-06T10:01:03;101043.34;;;17.73;100.00
41862;BME280;27537;57.134;-2.136;2023-08-06T10:03:31;101043.66;;;17.97;100.00
41862;BME280;27537;57.134;-2.136;2023-08-06T10:06:00;101030.78;;;17.91;100.00
41862;BME280;27537;57.134;-2.136;2023-08-06T10:08:29;101040.22;;;17.95;100.00
41862;BME280;27537;57.134;-2.136;2023-08-06T10:10:57;101052.63;;;18.36;100.00
41862;BME280;27537;57.134;-2.136;2023-08-06T10:13:24;101042.03;;;17.95;100.00
41862;BME280;27537;57.134;-2.136;2023-08-06T10:15:52;101049.13;;;17.80;100.00
41862;BME280;27537;57.134;-2.136;2023-08-06T10:18:19;101027.88;;;17.38;100.00
41862;BME280;27537;57.134;-2.136;2023-08-06T10:20:48;101040.00;;;17.42;100.00
41862;BME280;27537;57.134;-2.136;2023-08-06T10:23:15;101045.28;;;17.42;100.00
41862;BME280;27537;57.134;-2.136;2023-08-06T10:25:42;101053.66;;;17.35;100.00
41862;BME280;27537;57.134;-2.136;2023-08-06T10:28:10;101048.00;;;17.55;100.00
41862;BME280;27537;57.134;-2.136;2023-08-06T10:30:47;101048.47;;;17.33;100.00
41862;BME280;27537;57.134;-2.136;2023-08-06T10:33:14;101045.47;;;17.39;100.00
41862;BME280;27537;57.134;-2.136;2023-08-06T10:35:47;101054.16;;;17.27;100.00
41862;BME280;27537;57.134;-2.136;2023-08-06T10:38:22;101053.56;;;17.51;100.00
41862;BME280;27537;57.134;-2.136;2023-08-06T10:43:30;101055.19;;;17.68;100.00
41862;BME280;27537;57.134;-2.136;2023-08-06T10:45:59;101051.13;;;17.76;100.00
41862;BME280;27537;57.134;-2.136;2023-08-06T10:48:37;101046.06;;;18.00;100.00
41862;BME280;27537;57.134;-2.136;2023-08-06T10:51:12;101058.25;;;18.45;100.00
41862;BME280;27537;57.134;-2.136;2023-08-06T10:53:46;101056.34;;;17.92;100.00
41862;BME280;27537;57.134;-2.136;2023-08-06T10:56:18;101054.31;;;18.10;100.00
41862;BME280;27537;57.134;-2.136;2023-08-06T10:58:45;101066.34;;;18.29;100.00
41862;BME280;27537;57.134;-2.136;2023-08-06T11:01:13;101064.97;;;18.50;100.00
41862;BME280;27537;57.134;-2.136;2023-08-06T11:03:41;101063.78;;;18.27;100.00
41862;BME280;27537;57.134;-2.136;2023-08-06T11:06:09;101062.91;;;18.41;100.00
41862;BME280;27537;57.134;-2.136;2023-08-06T11:08:39;101078.22;;;18.23;100.00
41862;BME280;27537;57.134;-2.136;2023-08-06T11:11:10;101079.69;;;18.00;100.00
41862;BME280;27537;57.134;-2.136;2023-08-06T11:13:43;101081.31;;;18.30;100.00
41862;BME280;27537;57.134;-2.136;2023-08-06T11:16:17;101074.00;;;17.92;100.00
41862;BME280;27537;57.134;-2.136;2023-08-06T11:18:45;101071.81;;;17.98;100.00
41862;BME280;27537;57.134;-2.136;2023-08-06T11:21:12;101070.31;;;17.94;100.00
41862;BME280;27537;57.134;-2.136;2023-08-06T11:23:40;101087.41;;;18.17;100.00
41862;BME280;27537;57.134;-2.136;2023-08-06T11:26:07;101075.88;;;18.04;100.00
41862;BME280;27537;57.134;-2.136;2023-08-06T11:28:34;101075.31;;;18.13;100.00
41862;BME280;27537;57.134;-2.136;2023-08-06T11:31:02;101083.25;;;18.13;100.00
41862;BME280;27537;57.134;-2.136;2023-08-06T11:33:30;101087.81;;;17.97;100.00
41862;BME280;27537;57.134;-2.136;2023-08-06T11:35:59;101089.63;;;17.96;100.00
41862;BME280;27537;57.134;-2.136;2023-08-06T11:38:27;101082.50;;;17.68;100.00
41862;BME280;27537;57.134;-2.136;2023-08-06T11:40:55;101083.47;;;17.96;100.00
41862;BME280;27537;57.134;-2.136;2023-08-06T11:43:22;101089.94;;;17.18;100.00
41862;BME280;27537;57.134;-2.136;2023-08-06T11:45:49;101086.97;;;17.68;100.00
41862;BME280;27537;57.134;-2.136;2023-08-06T11:48:17;101093.97;;;17.83;100.00
41862;BME280;27537;57.134;-2.136;2023-08-06T11:50:44;101085.69;;;18.16;100.00
41862;BME280;27537;57.134;-2.136;2023-08-06T11:53:14;101081.78;;;18.36;100.00
41862;BME280;27537;57.134;-2.136;2023-08-06T11:55:42;101078.72;;;18.43;100.00
41862;BME280;27537;57.134;-2.136;2023-08-06T11:58:09;101094.06;;;18.37;100.00
41862;BME280;27537;57.134;-2.136;2023-08-06T12:00:38;101091.88;;;18.44;100.00
41862;BME280;27537;57.134;-2.136;2023-08-06T12:03:05;101093.50;;;18.32;100.00
41862;BME280;27537;57.134;-2.136;2023-08-06T12:05:32;101092.72;;;18.45;100.00
41862;BME280;27537;57.134;-2.136;2023-08-06T12:08:04;101094.16;;;18.36;100.00
41862;BME280;27537;57.134;-2.136;2023-08-06T12:10:32;101082.00;;;18.19;100.00
41862;BME280;27537;57.134;-2.136;2023-08-06T12:12:59;101094.94;;;18.24;100.00
41862;BME280;27537;57.134;-2.136;2023-08-06T12:15:26;101097.31;;;18.28;100.00
41862;BME280;27537;57.134;-2.136;2023-08-06T12:17:53;101086.66;;;18.15;100.00
41862;BME280;27537;57.134;-2.136;2023-08-06T12:20:20;101091.13;;;17.72;100.00
41862;BME280;27537;57.134;-2.136;2023-08-06T12:22:47;101085.91;;;17.84;100.00
41862;BME280;27537;57.134;-2.136;2023-08-06T12:25:14;101099.47;;;17.94;100.00
41862;BME280;27537;57.134;-2.136;2023-08-06T12:27:42;101098.31;;;17.84;100.00
41862;BME280;27537;57.134;-2.136;2023-08-06T12:30:10;101112.97;;;17.75;100.00
41862;BME280;27537;57.134;-2.136;2023-08-06T12:32:37;101109.31;;;17.92;100.00
41862;BME280;27537;57.134;-2.136;2023-08-06T12:35:05;101105.03;;;18.04;100.00
41862;BME280;27537;57.134;-2.136;2023-08-06T12:37:34;101113.66;;;17.93;100.00
41862;BME280;27537;57.134;-2.136;2023-08-06T12:40:01;101114.59;;;17.92;100.00
41862;BME280;27537;57.134;-2.136;2023-08-06T12:42:50;101106.66;;;17.92;100.00